Pecan Gap, Texas
Current Conditions -  °F | °C
As of 2:15 AM on Tuesday 21 Oct 2014 (Local Time) from KSLR Reporting Station
NA  
Wind Chill: 60°   Ceiling: NA
Heat Index: 60°   Visibility: 10mi
Dew Point: 58°   Wind: 0mph
Humidity: 91%   Direction: NA
Pressure: 30.07"   Gusts: NA
Location:  33.44°N, 95.85°W
Report Text: KSLR 210715Z AUTO 00000KT 10SM 16/14 A3007 RMK AO2 T01570142
Loading
Personal Weather Stations






























Interactive Weather Map
Tropical Storm Tracking
New forecast layout! Learn more

10-Day Weather Forecast

Advertisements
Track Severe Weather on mobile